Time;durP1;ratioP1;P1;durP2;ratioP2;P2;SDS_P1;SDS_P2;PMS_P1;PMS_P2;Temp;Humidity;BMP_temperature;BMP_pressure;BME280_temperature;BME280_humidity;BME280_pressure;Samples;Min_cycle;Max_cycle;Signal;HPM_P1;HPM_P2
2022/10/03 00:01:23;;;;;;;9.83;2.83;;;21.30;55.00;;;;;;4986485;28;20461;-79
2022/10/03 00:03:57;;;;;;;6.73;2.80;;;21.30;55.00;;;;;;4980316;28;20821;-78
2022/10/03 00:06:29;;;;;;;6.30;3.10;;;21.30;55.10;;;;;;4981246;28;20429;-79
2022/10/03 00:09:07;;;;;;;8.70;3.30;;;21.30;55.00;;;;;;4980175;28;20420;-79
2022/10/03 00:11:42;;;;;;;6.83;2.87;;;21.30;55.00;;;;;;4980148;28;20502;-79
2022/10/03 00:14:14;;;;;;;8.60;2.87;;;21.20;54.90;;;;;;4996812;28;20837;-79
2022/10/03 00:16:47;;;;;;;7.97;3.33;;;21.20;55.10;;;;;;4998963;28;20459;-80
2022/10/03 00:19:20;;;;;;;4.70;2.73;;;21.20;55.20;;;;;;4995549;28;20450;-79
2022/10/03 00:21:56;;;;;;;3.87;2.40;;;21.20;54.90;;;;;;4980202;28;20450;-79
2022/10/03 00:24:29;;;;;;;8.10;2.87;;;21.20;55.10;;;;;;4988482;28;20468;-79
2022/10/03 00:26:59;;;;;;;5.00;2.70;;;21.20;55.10;;;;;;4993649;28;20458;-79
2022/10/03 00:29:40;;;;;;;7.27;2.90;;;21.20;55.30;;;;;;4991958;28;20466;-79
2022/10/03 00:32:16;;;;;;;4.50;2.50;;;21.20;54.90;;;;;;4986025;28;20478;-79
2022/10/03 00:34:54;;;;;;;8.80;2.60;;;21.20;55.00;;;;;;4992976;28;20453;-79
2022/10/03 00:37:29;;;;;;;4.60;2.60;;;21.20;55.30;;;;;;5002356;28;20481;-79
2022/10/03 00:40:08;;;;;;;4.10;2.40;;;21.10;55.20;;;;;;4987358;28;20454;-80
2022/10/03 00:43:11;;;;;;;5.87;2.80;;;21.10;55.10;;;;;;5005338;28;20456;-79
2022/10/03 00:45:55;;;;;;;8.60;2.60;;;21.10;55.20;;;;;;5012234;28;20484;-78
2022/10/03 00:48:47;;;;;;;4.03;2.27;;;21.10;55.20;;;;;;5013612;28;20469;-78
2022/10/03 00:51:24;;;;;;;6.27;2.70;;;21.00;55.20;;;;;;5008034;28;20481;-78
2022/10/03 00:54:01;;;;;;;5.07;2.87;;;21.00;55.20;;;;;;5014209;28;20472;-79
2022/10/03 00:57:01;;;;;;;3.97;2.50;;;21.00;55.40;;;;;;5004794;28;20445;-79
2022/10/03 00:59:39;;;;;;;8.53;3.00;;;21.00;55.40;;;;;;4970834;28;20457;-78
2022/10/03 01:02:25;;;;;;;3.90;2.20;;;21.00;55.60;;;;;;5010383;28;20436;-79
2022/10/03 01:04:55;;;;;;;9.67;2.77;;;21.00;55.40;;;;;;4999910;28;20454;-79
2022/10/03 01:07:32;;;;;;;12.40;2.30;;;21.00;55.40;;;;;;5012575;28;20436;-79
2022/10/03 01:10:08;;;;;;;3.63;2.30;;;20.90;55.40;;;;;;5002808;28;20437;-79
2022/10/03 01:12:48;;;;;;;6.43;3.10;;;21.00;55.60;;;;;;5008566;28;20495;-80
2022/10/03 01:15:22;;;;;;;5.70;2.90;;;20.90;55.40;;;;;;5006955;28;20471;-78
2022/10/03 01:18:04;;;;;;;3.37;2.43;;;21.00;55.60;;;;;;5000931;28;20445;-79
2022/10/03 01:20:35;;;;;;;5.10;2.53;;;21.00;55.40;;;;;;4989611;28;20551;-79
2022/10/03 01:23:17;;;;;;;6.30;2.77;;;20.90;55.30;;;;;;4996568;28;20496;-79
2022/10/03 01:25:49;;;;;;;6.30;2.83;;;20.90;55.70;;;;;;4978642;28;20450;-78
2022/10/03 01:31:32;;;;;;;5.90;2.60;;;21.00;55.60;;;;;;4982404;28;20478;-78
2022/10/03 01:34:03;;;;;;;4.43;2.47;;;21.00;55.70;;;;;;4979204;28;20533;-79
2022/10/03 01:36:34;;;;;;;6.43;3.40;;;21.00;55.30;;;;;;4987220;28;20467;-79
2022/10/03 01:39:05;;;;;;;3.90;2.30;;;20.90;55.60;;;;;;4997357;28;20998;-79
2022/10/03 01:41:37;;;;;;;5.43;2.43;;;20.90;55.30;;;;;;4994329;28;20469;-79
2022/10/03 01:44:12;;;;;;;3.63;2.40;;;20.90;55.50;;;;;;4991179;28;20892;-79
2022/10/03 01:46:43;;;;;;;4.47;2.70;;;20.90;55.70;;;;;;5007882;28;20434;-79
2022/10/03 01:49:15;;;;;;;4.13;2.50;;;20.90;55.50;;;;;;4999010;28;20485;-79
2022/10/03 01:51:47;;;;;;;4.67;2.50;;;20.90;55.60;;;;;;4983208;28;20496;-78
2022/10/03 01:54:18;;;;;;;5.27;2.30;;;20.90;55.50;;;;;;4984784;28;20996;-79
2022/10/03 01:56:52;;;;;;;5.87;2.33;;;20.80;55.80;;;;;;4986443;28;20448;-79
2022/10/03 01:59:29;;;;;;;3.20;2.27;;;20.80;55.60;;;;;;4982815;28;20459;-79
2022/10/03 02:02:01;;;;;;;2.90;2.13;;;20.80;55.90;;;;;;4988435;28;20508;-79
2022/10/03 02:04:36;;;;;;;6.30;2.37;;;20.80;55.80;;;;;;5001647;28;20445;-79
2022/10/03 02:07:07;;;;;;;2.50;2.10;;;20.80;55.90;;;;;;4996756;28;20473;-79
2022/10/03 02:09:40;;;;;;;5.43;2.40;;;20.80;56.00;;;;;;5006211;28;20465;-80
2022/10/03 02:12:10;;;;;;;5.40;2.23;;;20.80;55.90;;;;;;5001576;28;20484;-80
2022/10/03 02:14:51;;;;;;;5.60;2.50;;;20.80;55.80;;;;;;5004039;28;20477;-80
2022/10/03 02:17:30;;;;;;;3.67;2.37;;;20.70;55.70;;;;;;4995601;28;20453;-81
2022/10/03 02:20:03;;;;;;;3.43;2.30;;;20.70;55.80;;;;;;5004184;28;20457;-80
2022/10/03 02:22:34;;;;;;;5.43;2.43;;;20.70;56.00;;;;;;5004898;28;20449;-80
2022/10/03 02:25:13;;;;;;;5.10;2.80;;;20.70;56.00;;;;;;4993211;28;20458;-80
2022/10/03 02:28:07;;;;;;;6.63;2.43;;;20.70;56.10;;;;;;5001725;28;20488;-80
2022/10/03 02:30:41;;;;;;;2.60;2.10;;;20.70;56.00;;;;;;4974562;28;20564;-80
2022/10/03 02:33:50;;;;;;;4.80;2.30;;;20.70;55.80;;;;;;4997253;28;20470;-80
2022/10/03 02:36:48;;;;;;;7.87;2.90;;;20.60;56.10;;;;;;4995123;28;20455;-81
2022/10/03 02:39:27;;;;;;;4.40;2.37;;;20.70;56.20;;;;;;4999178;28;20457;-80
2022/10/03 02:42:27;;;;;;;7.20;2.23;;;20.70;56.10;;;;;;4992678;28;20468;-80
2022/10/03 02:45:15;;;;;;;5.70;2.47;;;20.70;56.20;;;;;;4989586;28;20828;-80
2022/10/03 02:48:12;;;;;;;5.13;2.73;;;20.60;56.00;;;;;;4995216;28;20480;-80
2022/10/03 02:51:13;;;;;;;1.90;1.80;;;20.60;56.20;;;;;;5001779;28;20558;-80
2022/10/03 02:54:14;;;;;;;5.00;2.10;;;20.60;56.10;;;;;;4986550;28;20469;-81
2022/10/03 02:57:03;;;;;;;3.50;1.93;;;20.70;56.20;;;;;;4999202;28;20468;-80
2022/10/03 02:59:56;;;;;;;7.60;2.60;;;20.60;56.20;;;;;;5002540;28;20466;-80
2022/10/03 03:03:01;;;;;;;2.57;2.37;;;20.70;56.20;;;;;;5006076;28;20884;-81
2022/10/03 03:06:16;;;;;;;4.57;2.40;;;20.60;56.20;;;;;;4988301;28;20438;-81
2022/10/03 03:09:16;;;;;;;2.30;1.80;;;20.60;56.20;;;;;;5009887;28;20759;-80
2022/10/03 03:12:20;;;;;;;4.90;2.07;;;20.60;56.30;;;;;;5005111;28;20457;-80
2022/10/03 03:15:30;;;;;;;4.40;2.00;;;20.60;56.50;;;;;;5007060;28;20484;-80
2022/10/03 03:18:03;;;;;;;5.10;2.53;;;20.50;56.40;;;;;;5006085;28;20433;-80
2022/10/03 03:20:51;;;;;;;2.83;2.20;;;20.50;56.50;;;;;;5015837;28;20467;-80
2022/10/03 03:23:37;;;;;;;3.20;1.97;;;20.50;56.60;;;;;;5006807;28;20450;-80
2022/10/03 03:26:24;;;;;;;3.03;2.10;;;20.50;56.60;;;;;;5005762;28;20450;-80
2022/10/03 03:28:55;;;;;;;3.50;1.70;;;20.50;56.40;;;;;;5006452;28;21020;-79
2022/10/03 03:31:27;;;;;;;2.80;2.07;;;20.50;56.60;;;;;;5008376;28;20460;-80
2022/10/03 03:34:00;;;;;;;1.90;1.80;;;20.50;56.50;;;;;;4983942;28;20534;-81
2022/10/03 03:36:33;;;;;;;4.47;2.20;;;20.40;56.60;;;;;;4984475;28;20462;-81
2022/10/03 03:39:08;;;;;;;2.07;1.87;;;20.50;56.60;;;;;;4999570;28;20428;-80
2022/10/03 03:41:57;;;;;;;4.93;2.30;;;20.40;56.40;;;;;;4991206;28;20507;-80
2022/10/03 03:44:37;;;;;;;4.90;2.20;;;20.40;56.60;;;;;;4991028;28;20449;-80
2022/10/03 03:47:17;;;;;;;3.50;1.87;;;20.40;56.70;;;;;;4999887;28;20464;-80
2022/10/03 03:49:58;;;;;;;4.53;1.80;;;20.40;56.50;;;;;;5001326;28;20437;-81
2022/10/03 03:52:36;;;;;;;3.47;1.93;;;20.40;56.70;;;;;;4987258;28;20514;-81
2022/10/03 03:55:23;;;;;;;7.90;2.40;;;20.40;56.80;;;;;;4993930;28;20476;-81
2022/10/03 03:58:05;;;;;;;2.80;1.83;;;20.40;56.70;;;;;;4981422;28;20436;-81
2022/10/03 04:00:41;;;;;;;6.03;2.50;;;20.30;56.80;;;;;;5001132;28;20506;-81
2022/10/03 04:03:20;;;;;;;3.30;2.10;;;20.40;56.80;;;;;;4999779;28;20919;-81
2022/10/03 04:06:04;;;;;;;5.03;1.57;;;20.30;56.60;;;;;;4983788;28;20830;-81
2022/10/03 04:08:42;;;;;;;3.03;2.10;;;20.30;56.60;;;;;;4999658;28;20443;-81
2022/10/03 04:11:17;;;;;;;3.87;1.90;;;20.20;56.50;;;;;;4994404;28;20454;-81
2022/10/03 04:14:09;;;;;;;3.00;1.80;;;20.30;57.00;;;;;;4980552;28;20477;-81
2022/10/03 04:19:30;;;;;;;4.13;2.03;;;20.20;56.70;;;;;;4986843;28;20461;-81
2022/10/03 04:22:24;;;;;;;3.03;1.90;;;20.20;56.80;;;;;;4994401;28;20469;-83
2022/10/03 04:25:14;;;;;;;3.73;1.70;;;20.20;56.90;;;;;;4993061;28;20416;-81
2022/10/03 04:27:57;;;;;;;4.00;2.10;;;20.20;57.00;;;;;;4988991;28;20442;-82
2022/10/03 04:30:29;;;;;;;2.70;2.10;;;20.20;56.90;;;;;;4997114;28;20507;-81
2022/10/03 04:33:13;;;;;;;2.60;1.80;;;20.30;57.20;;;;;;4985803;28;20454;-81
2022/10/03 04:36:06;;;;;;;2.00;1.83;;;20.30;56.70;;;;;;4993169;28;20444;-82
2022/10/03 04:38:41;;;;;;;5.07;1.83;;;20.30;57.10;;;;;;4995703;28;20454;-82
2022/10/03 04:41:13;;;;;;;3.43;2.23;;;20.30;56.70;;;;;;4995481;28;20478;-81
2022/10/03 04:43:42;;;;;;;4.30;1.80;;;20.20;56.70;;;;;;4994772;28;20449;-81
2022/10/03 04:46:18;;;;;;;1.93;1.43;;;20.20;56.80;;;;;;4995490;28;20420;-80
2022/10/03 04:48:50;;;;;;;4.00;1.93;;;20.20;57.10;;;;;;4996066;28;20453;-80
2022/10/03 04:51:21;;;;;;;3.00;1.63;;;20.20;56.80;;;;;;4999971;28;20478;-80
2022/10/03 04:53:52;;;;;;;2.03;1.63;;;20.20;57.30;;;;;;5001018;28;20443;-80
2022/10/03 04:56:48;;;;;;;3.27;2.10;;;20.20;57.20;;;;;;4998432;28;20462;-80
2022/10/03 04:59:39;;;;;;;1.87;1.53;;;20.20;57.20;;;;;;4991592;28;20449;-80
2022/10/03 05:02:15;;;;;;;1.50;1.40;;;20.20;57.10;;;;;;4994839;28;20470;-80
2022/10/03 05:04:45;;;;;;;3.00;1.90;;;20.20;57.20;;;;;;4996528;28;20441;-80
2022/10/03 05:07:16;;;;;;;6.40;2.10;;;20.20;57.00;;;;;;5003032;28;20461;-80
2022/10/03 05:09:48;;;;;;;1.90;1.80;;;20.20;57.20;;;;;;4999793;28;20448;-81
2022/10/03 05:12:21;;;;;;;2.37;1.70;;;20.20;57.00;;;;;;5001718;28;20479;-81
2022/10/03 05:15:04;;;;;;;3.47;1.67;;;20.20;56.90;;;;;;4987580;28;20473;-80
2022/10/03 05:17:38;;;;;;;3.93;1.80;;;20.20;57.30;;;;;;4987309;28;20458;-81
2022/10/03 05:20:33;;;;;;;2.33;1.80;;;20.20;57.10;;;;;;4983159;28;20529;-81
2022/10/03 05:23:06;;;;;;;2.17;1.80;;;20.20;57.30;;;;;;4991575;28;20540;-81
2022/10/03 05:25:40;;;;;;;3.13;2.07;;;20.20;57.30;;;;;;4996205;28;20445;-81
2022/10/03 05:28:19;;;;;;;2.20;1.63;;;20.20;57.20;;;;;;5000164;28;20454;-81
2022/10/03 05:30:53;;;;;;;2.70;1.80;;;20.20;57.20;;;;;;4997080;28;20464;-81
2022/10/03 05:33:29;;;;;;;4.10;1.53;;;20.20;57.20;;;;;;4996137;28;20454;-80
2022/10/03 05:36:12;;;;;;;2.70;2.37;;;20.10;57.20;;;;;;4997672;28;20468;-80
2022/10/03 05:39:05;;;;;;;3.27;1.90;;;20.10;57.10;;;;;;4996544;28;20449;-80
2022/10/03 05:41:34;;;;;;;5.20;2.50;;;20.10;57.30;;;;;;4989029;28;20473;-80
2022/10/03 05:44:05;;;;;;;3.53;2.50;;;20.10;57.40;;;;;;4990707;28;20465;-80
2022/10/03 05:46:57;;;;;;;3.03;2.60;;;20.10;57.40;;;;;;4990665;28;20453;-81
2022/10/03 05:49:48;;;;;;;3.80;2.87;;;20.10;57.30;;;;;;4990247;28;20457;-81
2022/10/03 05:52:35;;;;;;;4.50;3.00;;;20.20;57.50;;;;;;4997613;28;20476;-81
2022/10/03 05:55:19;;;;;;;5.70;3.30;;;20.10;57.20;;;;;;4990512;28;20484;-81
2022/10/03 05:58:16;;;;;;;4.20;2.90;;;20.10;57.20;;;;;;4998892;28;20460;-81
2022/10/03 06:01:00;;;;;;;4.03;2.80;;;20.10;58.10;;;;;;4991499;28;20477;-81
2022/10/03 06:03:48;;;;;;;5.70;3.03;;;20.10;57.50;;;;;;5000825;28;20445;-81
2022/10/03 06:06:21;;;;;;;4.20;2.97;;;20.10;57.50;;;;;;4993715;28;20454;-81
2022/10/03 06:08:56;;;;;;;2.90;2.57;;;20.10;57.60;;;;;;4999553;28;20446;-81
2022/10/03 06:11:41;;;;;;;3.20;2.77;;;20.10;57.30;;;;;;5000455;28;20468;-81
2022/10/03 06:14:27;;;;;;;4.10;3.00;;;20.00;57.10;;;;;;4992593;28;20466;-80
2022/10/03 06:17:03;;;;;;;3.83;3.10;;;20.00;57.50;;;;;;4989571;28;20964;-80
2022/10/03 06:19:38;;;;;;;4.63;3.10;;;20.10;57.10;;;;;;4996105;28;20473;-80
2022/10/03 06:22:43;;;;;;;6.33;3.33;;;20.00;57.40;;;;;;5002060;28;20487;-80
2022/10/03 06:25:50;;;;;;;3.57;2.73;;;20.10;57.40;;;;;;4994699;28;20452;-80
2022/10/03 06:28:59;;;;;;;3.40;2.57;;;20.10;57.40;;;;;;4998991;28;20476;-81
2022/10/03 06:31:50;;;;;;;6.40;2.87;;;20.10;57.40;;;;;;4988569;28;20472;-80
2022/10/03 06:34:32;;;;;;;4.67;3.00;;;20.10;57.50;;;;;;4991352;28;20465;-80
2022/10/03 06:37:16;;;;;;;3.03;2.63;;;20.10;57.50;;;;;;4994804;28;20980;-80
2022/10/03 06:40:18;;;;;;;3.53;2.90;;;20.20;57.30;;;;;;4984165;28;20461;-80
2022/10/03 06:43:00;;;;;;;3.47;2.57;;;20.20;57.30;;;;;;4988788;28;20475;-81
2022/10/03 06:46:01;;;;;;;6.53;2.70;;;20.20;57.30;;;;;;4980412;28;20461;-80
2022/10/03 06:49:00;;;;;;;5.33;2.87;;;20.30;57.30;;;;;;4993521;28;20467;-81
2022/10/03 06:51:48;;;;;;;5.17;3.00;;;20.30;57.50;;;;;;4988079;28;20481;-81
2022/10/03 06:54:47;;;;;;;3.30;3.00;;;20.30;57.20;;;;;;4986860;28;20449;-81
2022/10/03 06:57:28;;;;;;;6.50;3.10;;;20.40;57.30;;;;;;4992023;28;20544;-81
2022/10/03 07:00:03;;;;;;;3.10;2.50;;;20.40;57.20;;;;;;4994664;28;20464;-80
2022/10/03 07:02:56;;;;;;;4.10;2.90;;;20.40;57.20;;;;;;4998758;28;20460;-80
2022/10/03 07:06:04;;;;;;;6.20;2.70;;;20.50;57.30;;;;;;4991302;28;20424;-80
2022/10/03 07:09:08;;;;;;;3.33;2.57;;;20.50;57.00;;;;;;4973188;28;20438;-80
2022/10/03 07:11:45;;;;;;;3.80;2.33;;;20.50;57.20;;;;;;4984555;28;20477;-80
2022/10/03 07:14:58;;;;;;;3.70;2.93;;;20.50;57.00;;;;;;4998238;28;20443;-81
2022/10/03 07:17:59;;;;;;;3.37;2.57;;;20.50;57.10;;;;;;4997184;28;20465;-81
2022/10/03 07:20:44;;;;;;;3.83;2.60;;;20.50;57.20;;;;;;5001577;28;20468;-80
2022/10/03 07:23:39;;;;;;;4.70;2.47;;;20.50;56.90;;;;;;5007087;28;20448;-80
2022/10/03 07:26:36;;;;;;;5.67;2.90;;;20.60;57.10;;;;;;4997863;28;20428;-80
2022/10/03 07:29:13;;;;;;;2.43;2.23;;;20.60;57.10;;;;;;4996627;28;20463;-81
2022/10/03 07:31:52;;;;;;;2.90;2.37;;;20.60;57.20;;;;;;4985009;28;20987;-80
2022/10/03 07:35:04;;;;;;;4.60;2.47;;;20.60;56.80;;;;;;4998636;28;20464;-80
2022/10/03 07:40:59;;;;;;;2.67;2.43;;;20.70;57.10;;;;;;4999646;28;20485;-81
2022/10/03 07:43:57;;;;;;;3.70;2.60;;;20.80;57.10;;;;;;4983789;28;20454;-84
2022/10/03 07:46:58;;;;;;;4.73;2.57;;;20.80;57.10;;;;;;4984983;28;20464;-81
2022/10/03 07:50:00;;;;;;;2.47;1.87;;;21.00;57.30;;;;;;4985968;28;20464;-82
2022/10/03 07:52:39;;;;;;;2.43;1.90;;;21.10;56.80;;;;;;4954079;29;20501;-81
2022/10/03 07:55:27;;;;;;;2.60;2.10;;;21.10;56.70;;;;;;4995000;28;20450;-81
2022/10/03 07:58:25;;;;;;;4.30;2.10;;;21.20;56.60;;;;;;5001329;28;20443;-82
2022/10/03 08:01:07;;;;;;;2.27;2.03;;;21.30;56.50;;;;;;4997888;28;20473;-81
2022/10/03 08:04:01;;;;;;;2.43;2.23;;;21.40;56.20;;;;;;5006446;28;20545;-81
2022/10/03 08:06:34;;;;;;;4.57;2.10;;;21.50;56.30;;;;;;4978905;28;20442;-80
2022/10/03 08:09:24;;;;;;;5.13;2.43;;;21.40;56.00;;;;;;5008792;28;20476;-81
2022/10/03 08:12:15;;;;;;;8.67;2.03;;;21.50;56.00;;;;;;4983414;28;20473;-79
2022/10/03 08:14:48;;;;;;;9.80;1.70;;;20.90;56.90;;;;;;4994125;28;20462;-80
2022/10/03 08:17:48;;;;;;;11.13;4.90;;;20.60;59.80;;;;;;4991293;28;20469;-79
2022/10/03 08:20:40;;;;;;;8.57;4.20;;;20.10;60.70;;;;;;4996535;28;20435;-79
2022/10/03 08:23:24;;;;;;;10.03;2.67;;;20.20;63.50;;;;;;4990106;28;20448;-81
2022/10/03 08:25:58;;;;;;;8.50;2.20;;;19.80;61.70;;;;;;4990329;28;20445;-80
2022/10/03 08:28:43;;;;;;;6.90;2.00;;;20.00;62.40;;;;;;4994646;28;20527;-81
2022/10/03 08:31:19;;;;;;;13.40;2.60;;;19.70;62.90;;;;;;4994236;28;20436;-80
2022/10/03 08:34:26;;;;;;;9.00;1.90;;;20.00;65.50;;;;;;4995881;28;20415;-79
2022/10/03 08:37:13;;;;;;;8.17;2.67;;;21.10;64.20;;;;;;4996221;28;20486;-79
2022/10/03 08:39:54;;;;;;;5.00;2.00;;;22.00;60.90;;;;;;5001205;28;20460;-80
2022/10/03 08:42:52;;;;;;;9.73;2.07;;;22.60;59.00;;;;;;4997828;28;20477;-80
2022/10/03 08:45:50;;;;;;;8.10;2.53;;;23.10;57.70;;;;;;4991066;28;20421;-80
2022/10/03 08:48:42;;;;;;;5.83;2.20;;;23.60;56.90;;;;;;4990087;28;20485;-79
2022/10/03 08:51:40;;;;;;;6.97;2.10;;;23.90;56.10;;;;;;4997621;28;20461;-77
2022/10/03 08:54:35;;;;;;;5.90;2.13;;;24.20;55.40;;;;;;4980990;28;20460;-79
2022/10/03 08:57:14;;;;;;;7.33;2.43;;;24.50;54.90;;;;;;4978949;28;20460;-79
2022/10/03 09:00:14;;;;;;;5.13;1.93;;;24.80;54.40;;;;;;4978770;28;20432;-79
2022/10/03 09:03:16;;;;;;;6.80;2.20;;;25.00;54.10;;;;;;4978383;28;20425;-79
2022/10/03 09:06:54;;;;;;;5.40;2.20;;;25.30;53.50;;;;;;4984800;28;20428;-79
2022/10/03 09:10:10;;;;;;;6.90;2.40;;;25.50;52.90;;;;;;4978006;28;20451;-79
2022/10/03 09:12:49;;;;;;;7.43;2.60;;;25.70;52.50;;;;;;4989009;28;20440;-78
2022/10/03 09:15:55;;;;;;;12.63;2.50;;;25.90;52.10;;;;;;4992103;28;20465;-79
2022/10/03 09:18:43;;;;;;;6.73;2.20;;;26.10;51.90;;;;;;4993599;28;20424;-79
2022/10/03 09:21:45;;;;;;;10.90;2.10;;;26.20;51.50;;;;;;4996597;28;20461;-79
2022/10/03 09:24:32;;;;;;;3.50;1.87;;;26.30;51.30;;;;;;4992760;28;20493;-79
2022/10/03 09:27:32;;;;;;;5.53;2.47;;;26.40;51.00;;;;;;4991773;28;20467;-80
2022/10/03 09:30:13;;;;;;;6.80;1.90;;;26.50;50.80;;;;;;4951934;28;20504;-77
2022/10/03 09:33:13;;;;;;;6.83;1.93;;;26.60;50.70;;;;;;4978673;28;20404;-80
2022/10/03 09:36:15;;;;;;;5.07;1.70;;;26.60;50.50;;;;;;4980191;28;20434;-79
2022/10/03 09:39:12;;;;;;;3.07;1.63;;;26.70;50.40;;;;;;4978360;28;20441;-79
2022/10/03 09:42:12;;;;;;;6.40;2.17;;;26.80;50.20;;;;;;4979161;28;20473;-79
2022/10/03 09:44:50;;;;;;;3.77;1.70;;;26.90;50.00;;;;;;4985709;28;20470;-80
2022/10/03 09:47:52;;;;;;;8.00;1.90;;;26.90;49.90;;;;;;4995619;28;20465;-80
2022/10/03 09:50:36;;;;;;;6.20;2.03;;;27.00;49.80;;;;;;4994125;28;20469;-79
2022/10/03 09:53:19;;;;;;;3.97;1.93;;;27.20;50.00;;;;;;4996198;28;20468;-80
2022/10/03 09:56:00;;;;;;;4.30;1.93;;;27.20;49.70;;;;;;4988655;28;20508;-79
2022/10/03 09:58:38;;;;;;;5.83;1.80;;;27.30;49.80;;;;;;5000403;28;20484;-80
2022/10/03 10:01:22;;;;;;;4.40;2.13;;;27.30;49.80;;;;;;5000842;28;20465;-79
2022/10/03 10:04:29;;;;;;;4.53;1.83;;;27.40;49.60;;;;;;4992264;28;20468;-80
2022/10/03 10:07:39;;;;;;;8.97;5.00;;;27.40;49.60;;;;;;4980064;28;20433;-81
2022/10/03 10:10:37;;;;;;;6.13;1.73;;;27.30;47.70;;;;;;4989955;28;20525;-80
2022/10/03 10:13:37;;;;;;;5.57;2.00;;;26.50;46.70;;;;;;4987594;28;20458;-79
2022/10/03 10:16:46;;;;;;;5.90;2.50;;;26.90;50.00;;;;;;4989292;28;20429;-80
2022/10/03 10:19:45;;;;;;;1.80;1.70;;;27.40;49.50;;;;;;4991837;28;20473;-80
2022/10/03 10:22:28;;;;;;;7.40;2.50;;;27.60;49.20;;;;;;4993651;28;20501;-80
2022/10/03 10:25:36;;;;;;;9.10;2.40;;;27.70;49.00;;;;;;4995887;28;20511;-79
2022/10/03 10:28:36;;;;;;;7.00;2.10;;;27.80;48.80;;;;;;5005734;28;20411;-79
2022/10/03 10:31:44;;;;;;;5.90;2.10;;;27.90;48.70;;;;;;4981110;28;20508;-79
2022/10/03 10:34:49;;;;;;;4.53;2.00;;;27.80;48.60;;;;;;4975483;28;20477;-75
2022/10/03 10:37:40;;;;;;;6.23;2.03;;;27.70;49.00;;;;;;4985619;28;20476;-79
2022/10/03 10:40:45;;;;;;;9.97;2.37;;;27.50;49.50;;;;;;5002050;28;20440;-80
2022/10/03 10:43:42;;;;;;;18.80;2.83;;;27.40;50.10;;;;;;4990092;28;20470;-79
2022/10/03 10:46:49;;;;;;;5.20;2.10;;;27.30;50.30;;;;;;4976537;28;20489;-79
2022/10/03 10:49:59;;;;;;;7.37;2.37;;;27.20;50.30;;;;;;4954539;28;20477;-78
2022/10/03 10:53:01;;;;;;;6.10;2.60;;;27.00;50.50;;;;;;4974699;28;20492;-78
2022/10/03 10:56:17;;;;;;;7.17;2.63;;;26.90;50.90;;;;;;4975597;28;20445;-79
2022/10/03 10:59:14;;;;;;;3.07;2.37;;;26.80;51.10;;;;;;4978911;28;20474;-78
2022/10/03 11:02:03;;;;;;;4.43;2.27;;;26.70;51.20;;;;;;4974702;28;20458;-77
2022/10/03 11:04:58;;;;;;;9.17;2.60;;;26.70;51.40;;;;;;4997102;28;20460;-79
2022/10/03 11:07:57;;;;;;;9.07;2.33;;;26.70;51.50;;;;;;4981399;28;20412;-81
2022/10/03 11:10:32;;;;;;;3.20;2.10;;;26.60;51.60;;;;;;4998970;28;20449;-78
2022/10/03 11:13:48;;;;;;;8.60;2.10;;;26.60;51.60;;;;;;4996150;28;20458;-79
2022/10/03 11:16:45;;;;;;;5.03;1.80;;;26.60;51.70;;;;;;4985475;28;20534;-78
2022/10/03 11:19:47;;;;;;;2.67;1.97;;;26.80;52.80;;;;;;4991308;28;20501;-79
2022/10/03 11:22:54;;;;;;;6.20;2.00;;;28.10;49.30;;;;;;4994023;28;20819;-78
2022/10/03 11:25:44;;;;;;;6.20;2.50;;;27.90;49.10;;;;;;4964146;28;20441;-79
2022/10/03 11:28:57;;;;;;;9.60;2.20;;;27.60;49.60;;;;;;4996881;28;20494;-79
2022/10/03 11:31:48;;;;;;;4.00;2.47;;;27.30;50.30;;;;;;4939036;29;20490;-79
2022/10/03 11:34:32;;;;;;;6.13;2.10;;;27.50;50.50;;;;;;4993073;28;20459;-79
2022/10/03 11:37:09;;;;;;;4.83;1.90;;;28.30;49.60;;;;;;4976262;28;20427;-80
2022/10/03 11:39:42;;;;;;;3.50;2.00;;;29.90;46.50;;;;;;4987146;28;20429;-79
2022/10/03 11:42:27;;;;;;;4.47;2.30;;;31.10;44.10;;;;;;4984768;28;20499;-78
2022/10/03 11:44:58;;;;;;;4.90;2.27;;;31.70;42.70;;;;;;4995772;28;20440;-80
2022/10/03 11:47:42;;;;;;;2.23;1.80;;;32.60;40.80;;;;;;4998894;28;20453;-81
2022/10/03 11:50:33;;;;;;;4.00;2.00;;;32.50;39.60;;;;;;4998831;28;20453;-79
2022/10/03 11:53:10;;;;;;;7.80;2.83;;;31.30;41.60;;;;;;4989615;28;20524;-80
2022/10/03 11:55:40;;;;;;;7.53;2.50;;;30.60;43.60;;;;;;5002656;28;20804;-78
2022/10/03 11:58:32;;;;;;;14.30;2.87;;;32.10;42.70;;;;;;4990027;28;20478;-80
2022/10/03 12:01:24;;;;;;;7.30;2.10;;;32.60;39.40;;;;;;4996720;28;20488;-78
2022/10/03 12:03:55;;;;;;;5.10;2.23;;;31.90;41.00;;;;;;4998101;28;20440;-79
2022/10/03 12:09:29;;;;;;;4.83;2.40;;;30.60;43.80;;;;;;4998048;28;20448;-80
2022/10/03 12:11:58;;;;;;;6.23;2.73;;;30.80;42.50;;;;;;4998433;28;20485;-79
2022/10/03 12:14:29;;;;;;;4.97;2.67;;;30.20;43.30;;;;;;5002352;28;20437;-80
2022/10/03 12:17:05;;;;;;;11.40;2.50;;;29.90;44.80;;;;;;5008753;28;20456;-80
2022/10/03 12:19:36;;;;;;;5.50;2.63;;;29.50;44.90;;;;;;4987101;28;20482;-80
2022/10/03 12:22:10;;;;;;;7.60;2.40;;;30.80;44.70;;;;;;4983331;28;20476;-80
2022/10/03 12:24:41;;;;;;;7.70;2.70;;;32.40;41.10;;;;;;4990006;28;20477;-80
2022/10/03 12:27:15;;;;;;;6.30;2.80;;;33.50;38.70;;;;;;5000168;28;20461;-80
2022/10/03 12:29:45;;;;;;;5.53;2.53;;;34.50;37.70;;;;;;4993641;28;20456;-80
2022/10/03 12:32:22;;;;;;;2.67;2.47;;;34.70;35.80;;;;;;4999866;28;20484;-80
2022/10/03 12:34:53;;;;;;;2.23;2.03;;;34.90;36.40;;;;;;5005643;28;20429;-79
2022/10/03 12:37:32;;;;;;;3.57;2.63;;;35.60;35.30;;;;;;5000693;28;20452;-80
2022/10/03 12:40:04;;;;;;;2.27;2.07;;;36.20;34.10;;;;;;5004388;28;20456;-80
2022/10/03 12:42:34;;;;;;;7.53;2.23;;;36.20;33.90;;;;;;5005043;28;20422;-79
2022/10/03 12:45:05;;;;;;;3.10;2.07;;;36.20;33.10;;;;;;4993033;28;20445;-79
2022/10/03 12:47:43;;;;;;;2.73;2.20;;;35.50;34.70;;;;;;5004769;28;20429;-79
2022/10/03 12:50:30;;;;;;;2.00;1.90;;;35.10;34.80;;;;;;5002425;28;20504;-79
2022/10/03 12:53:08;;;;;;;2.47;2.27;;;33.90;35.70;;;;;;5000800;28;20464;-79
2022/10/03 12:55:37;;;;;;;3.33;1.90;;;33.90;37.10;;;;;;4991792;28;20449;-80
2022/10/03 12:58:06;;;;;;;3.60;1.90;;;35.20;35.70;;;;;;4996357;28;21015;-79
2022/10/03 13:00:36;;;;;;;2.33;2.10;;;35.20;34.00;;;;;;4992432;28;20466;-79
2022/10/03 13:03:16;;;;;;;2.93;2.30;;;36.10;33.60;;;;;;4998129;28;20460;-79
2022/10/03 13:06:10;;;;;;;2.80;2.60;;;34.90;34.40;;;;;;4984980;28;20449;-80
2022/10/03 13:08:44;;;;;;;2.83;2.23;;;34.10;35.50;;;;;;4990390;28;20464;-81
2022/10/03 13:11:29;;;;;;;2.37;2.17;;;33.70;36.30;;;;;;4997686;28;20476;-80
2022/10/03 13:14:18;;;;;;;3.13;2.37;;;32.70;37.50;;;;;;4994947;28;20464;-79
2022/10/03 13:16:54;;;;;;;5.17;2.30;;;32.20;38.90;;;;;;4988709;28;20454;-80
2022/10/03 13:19:24;;;;;;;8.47;2.53;;;31.70;39.50;;;;;;5000769;28;20469;-80
2022/10/03 13:22:02;;;;;;;6.70;2.60;;;31.10;40.50;;;;;;4998775;28;20464;-78
2022/10/03 13:24:33;;;;;;;2.40;2.20;;;30.50;41.70;;;;;;5011306;28;20452;-80
2022/10/03 13:27:06;;;;;;;3.17;2.73;;;30.80;42.40;;;;;;5013074;28;20441;-78
2022/10/03 13:29:37;;;;;;;3.30;2.30;;;30.70;41.40;;;;;;4999379;28;20445;-79
2022/10/03 13:32:18;;;;;;;3.33;2.00;;;30.30;42.20;;;;;;5000922;28;20559;-80
2022/10/03 13:38:17;;;;;;;5.33;2.40;;;30.30;43.60;;;;;;5003839;28;20457;-80
2022/10/03 13:40:48;;;;;;;2.53;2.33;;;30.30;42.60;;;;;;4994830;28;20461;-79
2022/10/03 13:43:18;;;;;;;2.53;2.33;;;30.40;42.90;;;;;;5006436;28;20445;-80
2022/10/03 13:45:47;;;;;;;3.97;2.53;;;30.20;42.80;;;;;;5000021;28;20453;-79
2022/10/03 13:48:18;;;;;;;9.40;3.10;;;30.00;43.40;;;;;;5006936;28;20445;-81
2022/10/03 13:50:57;;;;;;;5.43;2.70;;;29.90;43.70;;;;;;5004165;28;20471;-80
2022/10/03 13:53:39;;;;;;;4.77;2.83;;;29.80;44.10;;;;;;5008268;28;20445;-80
2022/10/03 13:56:08;;;;;;;2.37;2.17;;;29.80;44.10;;;;;;5003573;28;20464;-79
2022/10/03 13:58:42;;;;;;;3.70;2.40;;;29.90;44.10;;;;;;5007034;28;20465;-79
2022/10/03 14:01:20;;;;;;;2.60;2.40;;;30.00;43.80;;;;;;5013320;28;20444;-80
2022/10/03 14:04:04;;;;;;;2.57;2.40;;;30.00;43.60;;;;;;5008980;28;20520;-79
2022/10/03 14:06:32;;;;;;;4.97;2.50;;;30.30;43.30;;;;;;5011813;28;20463;-79
2022/10/03 14:09:31;;;;;;;3.67;2.60;;;30.50;42.70;;;;;;5005781;28;20450;-80
2022/10/03 14:12:04;;;;;;;2.60;2.40;;;30.00;43.10;;;;;;4997074;28;20520;-80
2022/10/03 14:14:42;;;;;;;3.80;2.87;;;29.60;43.80;;;;;;5000318;28;20445;-80
2022/10/03 14:17:12;;;;;;;3.20;2.90;;;29.80;43.80;;;;;;4985225;28;20440;-79
2022/10/03 14:19:47;;;;;;;3.60;2.80;;;29.60;43.90;;;;;;4995776;28;20481;-80
2022/10/03 14:22:24;;;;;;;3.00;2.73;;;29.30;44.50;;;;;;5002608;28;20481;-80
2022/10/03 14:24:57;;;;;;;3.37;3.10;;;29.10;45.10;;;;;;4998211;28;20465;-79
2022/10/03 14:27:37;;;;;;;3.10;2.90;;;28.80;45.20;;;;;;5003917;28;20449;-82
2022/10/03 14:30:08;;;;;;;3.07;2.87;;;28.70;45.70;;;;;;5005126;28;20472;-81